SBCG/CGR METAR and TAF weather

Enter ICAO airport designator
Station Type Date Time Source
SBCG METAR 2022/01/26 08:00 UTC NOAA

SBCG 260800Z 31004KT CAVOK 22/20 Q1011


Station Type Date Time Source
SBCG Decoded METAR 2022/01/26 08:00 UTC NOAA

Campo Grande Aeroporto , Brazil (SBCG) 20-28S 054-40W 567M
Jan 26, 2022 - 03:00 AM EST / 2022.01.26 0800 UTC
Wind: from the NW (310 degrees) at 5 MPH (4 KT):0
Visibility: greater than 7 mile(s):0
Temperature: 71 F (22 C)
Dew Point: 68 F (20 C)
Relative Humidity: 88%
Pressure (altimeter): 29.85 in. Hg (1011 hPa)
ob: SBCG 260800Z 31004KT CAVOK 22/20 Q1011
cycle: 8

Station Type Date Time Source
SBCG TAF 2022/01/26 06:03 UTC NOAA

TAF TAF
AMD SBCG 260400Z 2606/2706 33005KT 9999 FEW045 TN23/2609Z TX29/2618Z
BECMG 2609/2611 33010KT
BECMG 2611/2613 SCT040 FEW050TCU
TEMPO 2613/2618 33015G30KT 4000 TSRA SCT035 FEW040CB
TEMPO 2618/2621 28010KT 8000 TS VCSH SCT035 FEW040CB
BECMG 2621/2623 03005KT FEW045
TEMPO 2701/2706 33005KT
RMK PHG

Example: see airport list